Time;durP1;ratioP1;P1;durP2;ratioP2;P2;SDS_P1;SDS_P2;PMS_P1;PMS_P2;Temp;Humidity;BMP_temperature;BMP_pressure;BME280_temperature;BME280_humidity;BME280_pressure;Samples;Min_cycle;Max_cycle;Signal;HPM_P1;HPM_P2
2023/06/05 00:00:24;;;;;;;;;;;;;;;16.95;42.00;101741.16;4186586;28;20032;-70
2023/06/05 00:02:28;;;;;;;;;;;;;;;16.91;42.00;101747.00;4187806;28;20007;-70
2023/06/05 00:04:30;;;;;;;;;;;;;;;16.89;42.27;101740.03;4188934;28;20016;-70
2023/06/05 00:06:33;;;;;;;;;;;;;;;16.84;42.04;101737.84;4189344;28;20023;-70
2023/06/05 00:08:35;;;;;;;;;;;;;;;16.78;42.01;101745.97;4187302;28;20027;-70
2023/06/05 00:10:37;;;;;;;;;;;;;;;16.74;42.26;101740.91;4188522;28;20454;-70
2023/06/05 00:12:39;;;;;;;;;;;;;;;16.72;42.67;101743.00;4188038;28;20023;-71
2023/06/05 00:14:43;;;;;;;;;;;;;;;16.70;42.82;101739.59;4187336;28;20013;-71
2023/06/05 00:16:45;;;;;;;;;;;;;;;16.67;42.86;101741.88;4188018;28;20055;-70
2023/06/05 00:18:48;;;;;;;;;;;;;;;16.62;43.33;101738.88;4188528;28;20023;-70
2023/06/05 00:20:50;;;;;;;;;;;;;;;16.58;43.60;101746.59;4188043;28;20034;-70
2023/06/05 00:22:52;;;;;;;;;;;;;;;16.52;43.60;101742.75;4187026;28;20007;-71
2023/06/05 00:24:54;;;;;;;;;;;;;;;16.50;43.73;101739.38;4187278;28;20458;-70
2023/06/05 00:26:56;;;;;;;;;;;;;;;16.43;43.77;101738.47;4188048;28;20019;-71
2023/06/05 00:28:58;;;;;;;;;;;;;;;16.38;43.97;101738.19;4188140;28;20015;-71
2023/06/05 00:31:00;;;;;;;;;;;;;;;16.35;43.98;101741.31;4187024;28;20023;-71
2023/06/05 00:33:02;;;;;;;;;;;;;;;16.33;44.09;101746.09;4202931;28;20023;-71
2023/06/05 00:35:07;;;;;;;;;;;;;;;16.30;43.89;101752.78;4187738;28;20015;-72
2023/06/05 00:37:09;;;;;;;;;;;;;;;16.29;43.79;101747.50;4187495;28;20019;-72
2023/06/05 00:39:11;;;;;;;;;;;;;;;16.26;43.89;101739.72;4186393;28;20019;-71
2023/06/05 00:41:13;;;;;;;;;;;;;;;16.27;44.05;101744.97;4187703;28;20035;-71
2023/06/05 00:43:15;;;;;;;;;;;;;;;16.23;44.07;101746.38;4186821;28;20473;-71
2023/06/05 00:45:17;;;;;;;;;;;;;;;16.20;44.30;101742.16;4186782;28;20023;-70
2023/06/05 00:47:19;;;;;;;;;;;;;;;16.17;43.96;101737.06;4219082;28;19970;-71
2023/06/05 00:49:21;;;;;;;;;;;;;;;16.17;43.97;101738.97;4187554;28;20016;-70
2023/06/05 00:51:24;;;;;;;;;;;;;;;16.13;44.11;101740.41;4186758;28;20646;-70
2023/06/05 00:53:26;;;;;;;;;;;;;;;16.13;43.72;101741.22;4187644;28;20106;-70
2023/06/05 00:55:28;;;;;;;;;;;;;;;16.12;44.17;101735.97;4186414;28;20024;-70
2023/06/05 00:57:34;;;;;;;;;;;;;;;16.11;44.45;101737.88;4188239;28;20016;-70
2023/06/05 00:59:36;;;;;;;;;;;;;;;16.08;44.30;101738.25;4186939;28;20011;-71
2023/06/05 01:01:38;;;;;;;;;;;;;;;16.03;44.63;101730.63;4185511;28;20649;-71
2023/06/05 01:03:40;;;;;;;;;;;;;;;15.99;44.58;101731.19;4186656;28;20024;-70
2023/06/05 01:05:43;;;;;;;;;;;;;;;15.97;44.37;101739.56;4187195;28;20023;-71
2023/06/05 01:07:47;;;;;;;;;;;;;;;15.95;44.44;101733.44;4219248;28;20395;-70
2023/06/05 01:09:49;;;;;;;;;;;;;;;15.92;43.95;101736.53;4187150;28;20023;-70
2023/06/05 01:11:51;;;;;;;;;;;;;;;15.93;44.26;101737.41;4183199;28;20032;-70
2023/06/05 01:13:55;;;;;;;;;;;;;;;15.91;43.97;101734.00;4186617;28;20353;-71
2023/06/05 01:15:57;;;;;;;;;;;;;;;15.89;44.28;101725.19;4186909;28;20015;-71
2023/06/05 01:18:00;;;;;;;;;;;;;;;15.90;44.14;101732.31;4220371;28;20026;-70
2023/06/05 01:20:10;;;;;;;;;;;;;;;15.92;44.64;101731.09;4184801;28;20036;-70
2023/06/05 01:22:12;;;;;;;;;;;;;;;15.92;44.02;101728.34;4186591;28;20032;-71
2023/06/05 01:24:17;;;;;;;;;;;;;;;15.92;44.12;101732.97;4184747;28;20102;-71
2023/06/05 01:26:19;;;;;;;;;;;;;;;15.89;44.31;101722.44;4170238;28;20035;-71
2023/06/05 01:28:22;;;;;;;;;;;;;;;15.85;44.34;101732.88;4217310;28;20022;-70
2023/06/05 01:30:28;;;;;;;;;;;;;;;15.84;44.27;101732.03;4185765;28;20019;-70
2023/06/05 01:32:31;;;;;;;;;;;;;;;15.84;43.99;101734.75;4217490;28;20480;-72
2023/06/05 01:34:33;;;;;;;;;;;;;;;15.84;44.08;101728.47;4186542;28;20015;-71
2023/06/05 01:36:36;;;;;;;;;;;;;;;15.80;44.27;101729.88;4201904;28;19952;-71
2023/06/05 01:38:39;;;;;;;;;;;;;;;15.79;44.53;101733.63;4184888;28;20028;-71
2023/06/05 01:40:42;;;;;;;;;;;;;;;15.76;44.49;101725.81;4218412;28;20479;-71
2023/06/05 01:42:44;;;;;;;;;;;;;;;15.75;44.62;101735.88;4217760;28;20449;-71
2023/06/05 01:44:46;;;;;;;;;;;;;;;15.75;44.70;101733.13;4183735;28;20015;-71
2023/06/05 01:46:49;;;;;;;;;;;;;;;15.75;44.72;101726.81;4187165;28;20031;-71
2023/06/05 01:48:51;;;;;;;;;;;;;;;15.72;44.75;101729.91;4186366;28;20004;-71
2023/06/05 01:50:55;;;;;;;;;;;;;;;15.69;44.73;101736.59;4185099;28;20357;-71
2023/06/05 01:53:01;;;;;;;;;;;;;;;15.67;44.97;101730.47;4162897;28;20015;-71
2023/06/05 01:55:04;;;;;;;;;;;;;;;15.65;44.88;101732.56;4186880;28;20004;-71
2023/06/05 01:57:09;;;;;;;;;;;;;;;15.63;45.07;101726.47;4187120;28;20369;-71
2023/06/05 01:59:13;;;;;;;;;;;;;;;15.58;45.04;101724.28;4217077;28;21277;-71
2023/06/05 02:01:18;;;;;;;;;;;;;;;15.58;44.99;101731.59;4185575;28;20020;-71
2023/06/05 02:03:21;;;;;;;;;;;;;;;15.54;45.20;101728.41;4186680;28;20003;-71
2023/06/05 02:05:24;;;;;;;;;;;;;;;15.53;45.51;101728.59;4218973;28;20018;-71
2023/06/05 02:07:26;;;;;;;;;;;;;;;15.51;45.84;101726.06;4187070;28;20030;-70
2023/06/05 02:09:28;;;;;;;;;;;;;;;15.49;45.63;101723.53;4186157;28;20019;-70
2023/06/05 02:11:30;;;;;;;;;;;;;;;15.46;46.14;101720.34;4186941;28;20015;-70
2023/06/05 02:13:34;;;;;;;;;;;;;;;15.42;46.18;101711.69;4186495;28;20438;-71
2023/06/05 02:15:36;;;;;;;;;;;;;;;15.41;46.20;101717.31;4187593;28;20042;-71
2023/06/05 02:17:38;;;;;;;;;;;;;;;15.39;46.22;101712.06;4190519;28;20022;-72
2023/06/05 02:19:40;;;;;;;;;;;;;;;15.36;45.90;101711.56;4189919;28;20031;-72
2023/06/05 02:21:42;;;;;;;;;;;;;;;15.36;46.43;101708.84;4189453;28;20051;-71
2023/06/05 02:23:45;;;;;;;;;;;;;;;15.31;46.59;101713.00;4204992;28;20054;-72
2023/06/05 02:25:47;;;;;;;;;;;;;;;15.27;46.86;101706.22;4190049;28;20385;-72
2023/06/05 02:27:50;;;;;;;;;;;;;;;15.25;46.72;101702.84;4189700;28;20019;-72
2023/06/05 02:29:53;;;;;;;;;;;;;;;15.24;46.85;101703.88;4187968;28;20008;-72
2023/06/05 02:31:55;;;;;;;;;;;;;;;15.22;46.95;101694.19;4182488;28;20015;-72
2023/06/05 02:33:57;;;;;;;;;;;;;;;15.20;46.57;101699.81;4189024;28;20016;-71
2023/06/05 02:35:59;;;;;;;;;;;;;;;15.18;46.60;101696.44;4189142;28;20022;-71
2023/06/05 02:38:01;;;;;;;;;;;;;;;15.17;46.99;101693.91;4171875;28;20091;-72
2023/06/05 02:40:03;;;;;;;;;;;;;;;15.16;46.71;101700.34;4188894;28;20023;-72
2023/06/05 02:42:08;;;;;;;;;;;;;;;15.10;47.63;101697.34;4188294;28;20019;-72
2023/06/05 02:44:10;;;;;;;;;;;;;;;15.06;47.86;101709.66;4203261;28;20016;-72
2023/06/05 02:46:14;;;;;;;;;;;;;;;15.04;47.88;101708.13;4189166;28;20071;-73
2023/06/05 02:48:16;;;;;;;;;;;;;;;15.03;47.64;101703.72;4204990;28;20019;-73
2023/06/05 02:50:18;;;;;;;;;;;;;;;15.02;48.05;101702.88;4220266;28;19999;-72
2023/06/05 02:52:25;;;;;;;;;;;;;;;14.99;47.83;101696.97;4188363;28;20019;-72
2023/06/05 02:54:29;;;;;;;;;;;;;;;14.92;48.26;101697.69;4187991;28;20434;-72
2023/06/05 02:56:34;;;;;;;;;;;;;;;14.81;48.48;101695.41;4188697;28;20016;-70
2023/06/05 02:58:37;;;;;;;;;;;;;;;14.73;48.78;101695.44;4204217;28;20027;-73
2023/06/05 03:00:40;;;;;;;;;;;;;;;14.71;48.74;101697.50;4186629;28;20316;-73
2023/06/05 03:02:48;;;;;;;;;;;;;;;14.70;49.09;101693.09;4188114;28;20450;-73
2023/06/05 03:04:55;;;;;;;;;;;;;;;14.72;48.53;101699.22;4220651;28;20400;-73
2023/06/05 03:07:03;;;;;;;;;;;;;;;14.71;48.79;101694.78;4187048;28;20024;-73
2023/06/05 03:09:06;;;;;;;;;;;;;;;14.71;48.79;101695.63;4187440;28;20455;-73
2023/06/05 03:11:08;;;;;;;;;;;;;;;14.72;48.72;101693.78;4169621;28;20019;-73
2023/06/05 03:13:10;;;;;;;;;;;;;;;14.70;49.41;101696.66;4188977;28;20039;-73
2023/06/05 03:15:13;;;;;;;;;;;;;;;14.68;49.37;101697.88;4187564;28;20019;-73
2023/06/05 03:17:17;;;;;;;;;;;;;;;14.67;49.61;101690.72;4205057;28;20022;-72
2023/06/05 03:19:21;;;;;;;;;;;;;;;14.68;49.60;101690.53;4187459;28;20027;-72
2023/06/05 03:21:23;;;;;;;;;;;;;;;14.69;49.64;101696.84;4188296;28;20442;-72
2023/06/05 03:23:27;;;;;;;;;;;;;;;14.67;49.76;101693.44;4203087;28;20026;-72
2023/06/05 03:25:29;;;;;;;;;;;;;;;14.63;50.07;101687.53;4217445;28;20015;-72
2023/06/05 03:27:33;;;;;;;;;;;;;;;14.59;50.03;101687.03;4204377;28;20035;-72
2023/06/05 03:29:35;;;;;;;;;;;;;;;14.57;50.16;101688.22;4185704;28;20019;-72
2023/06/05 03:31:37;;;;;;;;;;;;;;;14.55;50.20;101690.28;4202717;28;20018;-72
2023/06/05 03:33:39;;;;;;;;;;;;;;;14.53;50.77;101689.59;4186792;28;20024;-72
2023/06/05 03:35:46;;;;;;;;;;;;;;;14.55;50.87;101693.84;4183481;28;20051;-72
2023/06/05 03:37:48;;;;;;;;;;;;;;;14.57;50.84;101689.06;4188744;28;20027;-72
2023/06/05 03:39:51;;;;;;;;;;;;;;;14.59;50.72;101692.47;4187583;28;20020;-72
2023/06/05 03:41:53;;;;;;;;;;;;;;;14.60;50.31;101694.16;4188635;28;20139;-72
2023/06/05 03:43:56;;;;;;;;;;;;;;;14.60;50.12;101696.88;4186189;28;20019;-72
2023/06/05 03:45:59;;;;;;;;;;;;;;;14.63;49.95;101703.00;4203075;28;20020;-72
2023/06/05 03:48:01;;;;;;;;;;;;;;;14.62;49.76;101696.69;4186625;28;20027;-72
2023/06/05 03:50:06;;;;;;;;;;;;;;;14.65;49.80;101701.78;4185005;28;20461;-73
2023/06/05 03:52:14;;;;;;;;;;;;;;;14.68;49.44;101692.44;4219939;28;20030;-72
2023/06/05 03:54:16;;;;;;;;;;;;;;;14.70;49.37;101710.25;4187011;28;20028;-72
2023/06/05 03:56:19;;;;;;;;;;;;;;;14.72;49.41;101705.47;4186713;28;20030;-72
2023/06/05 03:58:22;;;;;;;;;;;;;;;14.74;49.93;101706.13;4183243;28;20019;-72
2023/06/05 04:00:28;;;;;;;;;;;;;;;14.75;50.07;101698.84;4202057;28;20393;-72
2023/06/05 04:02:36;;;;;;;;;;;;;;;14.77;50.94;101696.78;4202819;28;20020;-72
2023/06/05 04:04:38;;;;;;;;;;;;;;;14.78;51.04;101698.47;4188011;28;20016;-72
2023/06/05 04:06:40;;;;;;;;;;;;;;;14.80;50.93;101703.75;4185173;28;20039;-72
2023/06/05 04:08:45;;;;;;;;;;;;;;;14.84;50.64;101705.06;4184976;28;20015;-72
2023/06/05 04:10:47;;;;;;;;;;;;;;;14.86;50.07;101703.00;4187392;28;20028;-72
2023/06/05 04:12:49;;;;;;;;;;;;;;;14.89;50.11;101710.78;4203016;28;20016;-72
2023/06/05 04:14:51;;;;;;;;;;;;;;;14.91;49.77;101708.75;4187627;28;20040;-72
2023/06/05 04:16:53;;;;;;;;;;;;;;;14.95;50.23;101713.66;4201787;28;20016;-72
2023/06/05 04:18:59;;;;;;;;;;;;;;;15.00;50.25;101706.78;4219046;28;20449;-72
2023/06/05 04:21:01;;;;;;;;;;;;;;;15.01;50.61;101720.22;4186448;28;20457;-72
2023/06/05 04:23:03;;;;;;;;;;;;;;;15.02;50.53;101715.63;4218618;28;20023;-72
2023/06/05 04:25:10;;;;;;;;;;;;;;;15.04;50.34;101717.13;4185121;28;20435;-72
2023/06/05 04:27:12;;;;;;;;;;;;;;;15.09;50.06;101720.16;4209544;28;20027;-72
2023/06/05 04:29:16;;;;;;;;;;;;;;;15.16;50.13;101719.41;4186504;28;20023;-72
2023/06/05 04:31:19;;;;;;;;;;;;;;;15.17;49.63;101716.50;4203115;28;20346;-72
2023/06/05 04:33:21;;;;;;;;;;;;;;;15.20;49.43;101704.41;4186330;28;20019;-72
2023/06/05 04:35:23;;;;;;;;;;;;;;;15.21;49.47;101709.66;4183523;28;20453;-72
2023/06/05 04:37:25;;;;;;;;;;;;;;;15.23;49.69;101706.75;4185015;28;19992;-72
2023/06/05 04:39:27;;;;;;;;;;;;;;;15.24;49.44;101713.91;4187014;28;20020;-72
2023/06/05 04:41:32;;;;;;;;;;;;;;;15.24;49.58;101698.41;4203499;28;19967;-72
2023/06/05 04:43:36;;;;;;;;;;;;;;;15.26;49.72;101709.13;4217721;28;20027;-72
2023/06/05 04:45:38;;;;;;;;;;;;;;;15.29;49.52;101708.75;4186151;28;20007;-72
2023/06/05 04:47:40;;;;;;;;;;;;;;;15.34;49.58;101709.03;4185834;28;20027;-72
2023/06/05 04:49:43;;;;;;;;;;;;;;;15.37;49.40;101697.78;4187251;28;20393;-72
2023/06/05 04:51:47;;;;;;;;;;;;;;;15.42;49.68;101708.13;4184436;28;20051;-72
2023/06/05 04:53:50;;;;;;;;;;;;;;;15.44;49.67;101708.78;4186488;28;20027;-72
2023/06/05 04:55:52;;;;;;;;;;;;;;;15.49;49.45;101704.47;4187080;28;20020;-72
2023/06/05 04:58:00;;;;;;;;;;;;;;;15.58;48.99;101702.50;4201857;28;20023;-72
2023/06/05 05:00:07;;;;;;;;;;;;;;;15.63;49.33;101694.63;4200333;28;20011;-72
2023/06/05 05:02:10;;;;;;;;;;;;;;;15.70;48.94;101700.16;4215477;28;20026;-73
2023/06/05 05:04:12;;;;;;;;;;;;;;;15.73;48.79;101698.94;4200050;28;20011;-72
2023/06/05 05:06:16;;;;;;;;;;;;;;;15.79;48.72;101695.50;4216156;28;20426;-73
2023/06/05 05:08:18;;;;;;;;;;;;;;;15.85;47.56;101698.31;4186337;28;20003;-73
2023/06/05 05:10:21;;;;;;;;;;;;;;;15.91;47.30;101704.03;4201821;28;20024;-72
2023/06/05 05:12:24;;;;;;;;;;;;;;;15.98;47.08;101704.97;4184470;28;20039;-70
2023/06/05 05:14:28;;;;;;;;;;;;;;;16.04;47.32;101706.94;4184148;28;20015;-73
2023/06/05 05:16:30;;;;;;;;;;;;;;;16.08;46.68;101710.13;4186120;28;20023;-73
2023/06/05 05:18:32;;;;;;;;;;;;;;;16.12;46.54;101709.56;4185194;28;20024;-73
2023/06/05 05:20:34;;;;;;;;;;;;;;;16.17;46.92;101701.66;4187083;28;20011;-72
2023/06/05 05:22:37;;;;;;;;;;;;;;;16.23;47.06;101708.22;4187869;28;20573;-72
2023/06/05 05:24:40;;;;;;;;;;;;;;;16.26;46.83;101710.56;4207045;28;20463;-73
2023/06/05 05:26:42;;;;;;;;;;;;;;;16.30;46.70;101711.88;4186015;28;20020;-73
2023/06/05 05:28:45;;;;;;;;;;;;;;;16.34;46.16;101712.34;4200282;28;20381;-72
2023/06/05 05:30:48;;;;;;;;;;;;;;;16.38;46.02;101709.03;4187341;28;20019;-72
2023/06/05 05:32:51;;;;;;;;;;;;;;;16.41;45.50;101707.81;4217133;28;20015;-73
2023/06/05 05:34:53;;;;;;;;;;;;;;;16.45;45.78;101713.72;4217876;28;20022;-72
2023/06/05 05:36:55;;;;;;;;;;;;;;;16.49;45.95;101712.28;4186099;28;20027;-72
2023/06/05 05:39:01;;;;;;;;;;;;;;;16.53;45.70;101714.44;4186177;28;20675;-72
2023/06/05 05:41:02;;;;;;;;;;;;;;;16.57;45.93;101706.75;4183728;28;20372;-72
2023/06/05 05:43:05;;;;;;;;;;;;;;;16.61;45.91;101718.94;4186997;28;20027;-72
2023/06/05 05:45:08;;;;;;;;;;;;;;;16.64;46.37;101724.00;4183894;28;20024;-73
2023/06/05 05:47:11;;;;;;;;;;;;;;;16.66;46.22;101708.31;4186478;28;20020;-72
2023/06/05 05:49:14;;;;;;;;;;;;;;;16.70;46.06;101716.94;4184016;28;20028;-72
2023/06/05 05:51:18;;;;;;;;;;;;;;;16.72;46.37;101714.84;4183810;28;20370;-72
2023/06/05 05:53:20;;;;;;;;;;;;;;;16.76;46.52;101722.44;4166529;28;20020;-72
2023/06/05 05:55:22;;;;;;;;;;;;;;;16.82;46.74;101722.69;4186249;28;20434;-72
2023/06/05 05:57:24;;;;;;;;;;;;;;;16.84;45.96;101726.94;4185739;28;20049;-72
2023/06/05 05:59:26;;;;;;;;;;;;;;;16.88;45.02;101728.28;4182371;28;20015;-72
2023/06/05 06:01:28;;;;;;;;;;;;;;;16.91;44.98;101727.91;4184478;28;20456;-72
2023/06/05 06:03:33;;;;;;;;;;;;;;;16.96;44.91;101734.63;4186456;28;20023;-72
2023/06/05 06:05:35;;;;;;;;;;;;;;;16.99;44.82;101729.66;4205721;28;20050;-71
2023/06/05 06:07:38;;;;;;;;;;;;;;;17.03;44.93;101735.56;4187660;28;20036;-71
2023/06/05 06:09:40;;;;;;;;;;;;;;;17.05;45.23;101733.47;4183787;28;20040;-70
2023/06/05 06:11:42;;;;;;;;;;;;;;;17.10;45.12;101740.03;4183286;28;20533;-70
2023/06/05 06:13:45;;;;;;;;;;;;;;;17.15;45.24;101741.31;4184678;28;20438;-70
2023/06/05 06:15:47;;;;;;;;;;;;;;;17.18;45.57;101741.78;4187055;28;20012;-70
2023/06/05 06:17:49;;;;;;;;;;;;;;;17.21;45.08;101741.41;4186665;28;20012;-71
2023/06/05 06:19:57;;;;;;;;;;;;;;;17.24;44.88;101741.00;4185673;28;20067;-70
2023/06/05 06:21:59;;;;;;;;;;;;;;;17.28;44.55;101744.16;4185581;28;20470;-71
2023/06/05 06:24:03;;;;;;;;;;;;;;;17.31;44.65;101738.31;4186050;28;20035;-70
2023/06/05 06:26:06;;;;;;;;;;;;;;;17.34;44.37;101739.81;4186194;28;20025;-71
2023/06/05 06:28:08;;;;;;;;;;;;;;;17.36;44.20;101738.56;4184895;28;20019;-70
2023/06/05 06:30:11;;;;;;;;;;;;;;;17.39;44.37;101740.91;4185792;28;20015;-70
2023/06/05 06:32:13;;;;;;;;;;;;;;;17.44;44.87;101740.31;4186443;28;20070;-71
2023/06/05 06:34:15;;;;;;;;;;;;;;;17.45;44.93;101742.84;4186014;28;20011;-71
2023/06/05 06:36:18;;;;;;;;;;;;;;;17.48;44.52;101736.97;4186007;28;20035;-70
2023/06/05 06:38:20;;;;;;;;;;;;;;;17.52;44.18;101742.88;4186810;28;20015;-70
2023/06/05 06:40:22;;;;;;;;;;;;;;;17.56;43.90;101746.06;4186162;28;20015;-70
2023/06/05 06:42:26;;;;;;;;;;;;;;;17.59;43.59;101742.94;4186437;28;20020;-70
2023/06/05 06:44:48;;;;;;;;;;;;;;;17.60;43.50;101748.22;4178707;28;20011;-70
2023/06/05 06:46:51;;;;;;;;;;;;;;;17.64;43.44;101743.19;4186403;28;20031;-70
2023/06/05 06:48:52;;;;;;;;;;;;;;;17.67;43.71;101741.94;4186343;28;20043;-71
2023/06/05 06:50:55;;;;;;;;;;;;;;;17.69;43.17;101746.16;4218449;28;20018;-71
2023/06/05 06:52:58;;;;;;;;;;;;;;;17.71;42.83;101741.34;4186760;28;20019;-71
2023/06/05 06:55:00;;;;;;;;;;;;;;;17.75;43.06;101741.78;4185596;28;20035;-71
2023/06/05 06:57:02;;;;;;;;;;;;;;;17.80;42.37;101747.50;4186239;28;20039;-70
2023/06/05 06:59:11;;;;;;;;;;;;;;;17.82;42.26;101746.25;4184756;28;20008;-71
2023/06/05 07:01:14;;;;;;;;;;;;;;;17.87;42.01;101748.38;4187900;28;20032;-70
2023/06/05 07:03:17;;;;;;;;;;;;;;;17.88;41.71;101739.16;4188759;28;20385;-70
2023/06/05 07:05:19;;;;;;;;;;;;;;;17.92;41.76;101739.63;4188095;28;20027;-70
2023/06/05 07:07:22;;;;;;;;;;;;;;;17.94;41.95;101738.34;4189338;28;20024;-71
2023/06/05 07:09:25;;;;;;;;;;;;;;;17.96;41.62;101743.63;4188625;28;20024;-71
2023/06/05 07:11:28;;;;;;;;;;;;;;;18.00;41.46;101743.00;4187464;28;20023;-71
2023/06/05 07:13:30;;;;;;;;;;;;;;;18.00;41.37;101740.28;4188696;28;20019;-71
2023/06/05 07:15:32;;;;;;;;;;;;;;;18.02;41.43;101740.06;4187875;28;20016;-70
2023/06/05 07:17:34;;;;;;;;;;;;;;;18.04;41.75;101738.00;4187356;28;20015;-71
2023/06/05 07:19:37;;;;;;;;;;;;;;;18.06;41.92;101738.63;4188272;28;20008;-71
2023/06/05 07:21:39;;;;;;;;;;;;;;;18.14;41.60;101740.34;4189272;28;20011;-71
2023/06/05 07:23:41;;;;;;;;;;;;;;;18.17;41.60;101742.69;4187665;28;20028;-71
2023/06/05 07:25:45;;;;;;;;;;;;;;;18.18;41.36;101745.22;4189496;28;20023;-72
2023/06/05 07:27:47;;;;;;;;;;;;;;;18.21;41.50;101740.38;4189469;28;20486;-72
2023/06/05 07:29:53;;;;;;;;;;;;;;;18.25;41.01;101739.78;4188143;28;20386;-71
2023/06/05 07:31:56;;;;;;;;;;;;;;;18.27;40.72;101734.09;4188424;28;20377;-71
2023/06/05 07:33:58;;;;;;;;;;;;;;;18.29;40.90;101735.59;4188777;28;20466;-72
2023/06/05 07:36:01;;;;;;;;;;;;;;;18.31;40.89;101735.38;4188005;28;20027;-71
2023/06/05 07:38:03;;;;;;;;;;;;;;;18.32;41.20;101739.78;4187511;28;20028;-72
2023/06/05 07:40:06;;;;;;;;;;;;;;;18.32;40.85;101737.91;4187680;28;20025;-72
2023/06/05 07:42:10;;;;;;;;;;;;;;;18.37;40.98;101737.31;4188205;28;20375;-71
2023/06/05 07:44:12;;;;;;;;;;;;;;;18.40;41.06;101733.31;4189340;28;20359;-72
2023/06/05 07:46:16;;;;;;;;;;;;;;;18.40;41.08;101736.91;4187852;28;20031;-71
2023/06/05 07:48:18;;;;;;;;;;;;;;;18.41;41.05;101732.25;4188881;28;20051;-71
2023/06/05 07:50:20;;;;;;;;;;;;;;;18.44;41.04;101731.84;4188377;28;20056;-71
2023/06/05 07:52:22;;;;;;;;;;;;;;;18.47;40.90;101736.91;4187388;28;20007;-71
2023/06/05 07:54:24;;;;;;;;;;;;;;;18.50;41.09;101733.78;4187368;28;20023;-71
2023/06/05 07:56:26;;;;;;;;;;;;;;;18.51;40.91;101736.31;4182542;28;20530;-70
2023/06/05 07:58:30;;;;;;;;;;;;;;;18.53;41.12;101728.72;4189467;28;20024;-70
2023/06/05 08:00:33;;;;;;;;;;;;;;;18.56;40.89;101741.16;4187779;28;20015;-70
2023/06/05 08:02:37;;;;;;;;;;;;;;;18.57;40.93;101736.53;4187970;28;20860;-71
2023/06/05 08:04:40;;;;;;;;;;;;;;;18.60;40.60;101733.38;4188859;28;20019;-70
2023/06/05 08:06:42;;;;;;;;;;;;;;;18.65;40.88;101733.59;4188092;28;20031;-70
2023/06/05 08:08:44;;;;;;;;;;;;;;;18.65;40.47;101725.38;4185804;28;20471;-71
2023/06/05 08:10:47;;;;;;;;;;;;;;;18.66;40.81;101733.38;4188196;28;20474;-71
2023/06/05 08:12:49;;;;;;;;;;;;;;;18.70;40.91;101740.13;4188537;28;20007;-71
2023/06/05 08:14:53;;;;;;;;;;;;;;;18.76;40.34;101724.78;4188975;28;20019;-71
2023/06/05 08:16:55;;;;;;;;;;;;;;;18.79;40.27;101721.63;4218627;28;20113;-71
2023/06/05 08:18:57;;;;;;;;;;;;;;;18.79;40.24;101727.09;4187622;28;20027;-72
2023/06/05 08:20:59;;;;;;;;;;;;;;;18.82;40.47;101725.84;4170543;28;20011;-72
2023/06/05 08:23:01;;;;;;;;;;;;;;;18.84;40.33;101726.47;4187247;28;20015;-71
2023/06/05 08:25:04;;;;;;;;;;;;;;;18.86;40.34;101722.50;4187308;28;20027;-72
2023/06/05 08:27:07;;;;;;;;;;;;;;;18.86;40.02;101721.69;4188129;28;20024;-72
2023/06/05 08:29:09;;;;;;;;;;;;;;;18.86;40.23;101722.50;4187055;28;20016;-72
2023/06/05 08:31:12;;;;;;;;;;;;;;;18.88;40.17;101714.94;4187215;28;20024;-71
2023/06/05 08:33:14;;;;;;;;;;;;;;;18.88;40.19;101720.41;4187588;28;20369;-71
2023/06/05 08:35:17;;;;;;;;;;;;;;;18.90;39.94;101718.31;4185928;28;20023;-71
2023/06/05 08:37:20;;;;;;;;;;;;;;;18.95;39.96;101712.22;4186919;28;20023;-71
2023/06/05 08:39:24;;;;;;;;;;;;;;;19.00;39.56;101709.69;4186379;28;20007;-71
2023/06/05 08:41:26;;;;;;;;;;;;;;;19.01;39.66;101708.66;4187267;28;20023;-72
2023/06/05 08:43:28;;;;;;;;;;;;;;;19.01;39.57;101705.91;4187679;28;20083;-72
2023/06/05 08:45:31;;;;;;;;;;;;;;;19.00;39.85;101709.69;4186906;28;20106;-72
2023/06/05 08:47:37;;;;;;;;;;;;;;;19.04;39.26;101702.75;4187630;28;20011;-72
2023/06/05 08:49:40;;;;;;;;;;;;;;;19.06;39.54;101705.28;4186013;28;20446;-72
2023/06/05 08:51:42;;;;;;;;;;;;;;;19.15;38.76;101711.38;4188670;28;20012;-72
2023/06/05 08:53:45;;;;;;;;;;;;;;;19.14;38.86;101696.84;4186634;28;20019;-72
2023/06/05 08:55:47;;;;;;;;;;;;;;;19.16;38.66;101700.22;4186844;28;20027;-72
2023/06/05 08:57:49;;;;;;;;;;;;;;;19.16;38.83;101700.22;4186868;28;20044;-72
2023/06/05 08:59:52;;;;;;;;;;;;;;;19.17;38.85;101703.78;4187239;28;20365;-72
2023/06/05 09:01:54;;;;;;;;;;;;;;;19.23;38.27;101708.41;4186771;28;20446;-72
2023/06/05 09:03:57;;;;;;;;;;;;;;;19.21;38.35;101694.94;4186163;28;20012;-72
2023/06/05 09:06:00;;;;;;;;;;;;;;;19.26;38.18;101703.38;4187279;28;20027;-72
2023/06/05 09:08:02;;;;;;;;;;;;;;;19.27;38.39;101701.47;4187596;28;20019;-72
2023/06/05 09:10:05;;;;;;;;;;;;;;;19.26;38.41;101695.16;4186617;28;20007;-72
2023/06/05 09:12:08;;;;;;;;;;;;;;;19.24;38.58;101699.16;4186485;28;20031;-71
2023/06/05 09:14:10;;;;;;;;;;;;;;;19.28;38.23;101694.94;4186549;28;20474;-71
2023/06/05 09:16:12;;;;;;;;;;;;;;;19.31;38.28;101697.25;4186156;28;20027;-71
2023/06/05 09:18:15;;;;;;;;;;;;;;;19.39;37.95;101698.94;4187208;28;20019;-71
2023/06/05 09:20:25;;;;;;;;;;;;;;;19.44;37.88;101685.44;4185699;28;20468;-71
2023/06/05 09:22:33;;;;;;;;;;;;;;;19.48;37.43;101697.63;4185101;28;20023;-71
2023/06/05 09:24:35;;;;;;;;;;;;;;;19.47;37.88;101689.63;4186473;28;20027;-71
2023/06/05 09:26:46;;;;;;;;;;;;;;;19.49;37.47;101695.75;4187566;28;20693;-71
2023/06/05 09:28:55;;;;;;;;;;;;;;;19.49;37.36;101696.59;4186914;28;20015;-71
2023/06/05 09:30:58;;;;;;;;;;;;;;;19.48;37.49;101694.91;4187026;28;20422;-71
2023/06/05 09:33:09;;;;;;;;;;;;;;;19.49;37.45;101687.53;4186593;28;20012;-71
2023/06/05 09:35:12;;;;;;;;;;;;;;;19.56;37.12;101691.09;4185492;28;20023;-72
2023/06/05 09:37:16;;;;;;;;;;;;;;;19.56;37.28;101691.97;4187250;28;20019;-71
2023/06/05 09:39:19;;;;;;;;;;;;;;;19.57;37.12;101690.88;4186202;28;20063;-71
2023/06/05 09:41:21;;;;;;;;;;;;;;;19.61;36.70;101688.56;4185249;28;20028;-72
2023/06/05 09:43:26;;;;;;;;;;;;;;;19.63;36.16;101698.25;4186341;28;21533;-71
2023/06/05 09:45:41;;;;;;;;;;;;;;;19.63;36.58;101681.81;4185497;28;20015;-71
2023/06/05 09:47:44;;;;;;;;;;;;;;;19.62;36.73;101687.50;4187470;28;20023;-72
2023/06/05 09:49:49;;;;;;;;;;;;;;;19.61;36.61;101681.19;4187057;28;20546;-72
2023/06/05 09:51:50;;;;;;;;;;;;;;;19.58;36.85;101681.63;4187778;28;20369;-72
2023/06/05 09:53:54;;;;;;;;;;;;;;;19.63;36.29;101686.47;4185828;28;20369;-72
2023/06/05 09:55:56;;;;;;;;;;;;;;;19.62;36.64;101674.66;4184322;28;20019;-72
2023/06/05 09:57:59;;;;;;;;;;;;;;;19.63;36.61;101675.50;4186379;28;20023;-72
2023/06/05 10:00:04;;;;;;;;;;;;;;;19.63;37.05;101668.09;4186663;28;20076;-72
2023/06/05 10:02:07;;;;;;;;;;;;;;;19.65;36.77;101669.81;4186463;28;20463;-72
2023/06/05 10:04:09;;;;;;;;;;;;;;;19.68;36.85;101667.47;4186615;28;20023;-72
2023/06/05 10:06:12;;;;;;;;;;;;;;;19.74;36.27;101660.28;4184479;28;20056;-72
2023/06/05 10:08:14;;;;;;;;;;;;;;;19.74;36.45;101658.38;4187211;28;20016;-71
2023/06/05 10:10:18;;;;;;;;;;;;;;;19.76;36.69;101664.50;4186485;28;19967;-72
2023/06/05 10:12:20;;;;;;;;;;;;;;;19.77;36.45;101652.50;4186262;28;20028;-71
2023/06/05 10:14:22;;;;;;;;;;;;;;;19.78;36.45;101656.06;4186506;28;20027;-72
2023/06/05 10:16:24;;;;;;;;;;;;;;;19.80;36.25;101656.72;4185594;28;20028;-72
2023/06/05 10:18:26;;;;;;;;;;;;;;;19.78;36.41;101645.09;4185983;28;20608;-72
2023/06/05 10:20:28;;;;;;;;;;;;;;;19.78;36.32;101648.72;4185990;28;20027;-71
2023/06/05 10:22:30;;;;;;;;;;;;;;;19.83;36.28;101647.19;4185820;28;20024;-70
2023/06/05 10:24:34;;;;;;;;;;;;;;;19.84;36.19;101641.50;4185676;28;20107;-71
2023/06/05 10:26:46;;;;;;;;;;;;;;;19.87;35.94;101641.06;4186212;28;20027;-71
2023/06/05 10:28:50;;;;;;;;;;;;;;;19.86;36.15;101636.66;4186082;28;20017;-71
2023/06/05 10:30:57;;;;;;;;;;;;;;;19.87;36.30;101640.25;4186494;28;20015;-71